sensor_id;sensor_type;location;lat;lon;timestamp;pressure;altitude;pressure_sealevel;temperature;humidity
74913;BME280;63878;55.624;37.304;2022-12-07T00:09:46;100098.88;;;-6.96;47.77
74913;BME280;63878;55.624;37.304;2022-12-07T00:19:47;100087.09;;;-6.91;48.09
74913;BME280;63878;55.624;37.304;2022-12-07T00:29:47;100087.06;;;-6.94;48.21
74913;BME280;63878;55.624;37.304;2022-12-07T00:39:48;100096.09;;;-7.53;49.16
74913;BME280;63878;55.624;37.304;2022-12-07T00:49:48;100080.47;;;-7.72;50.17
74913;BME280;63878;55.624;37.304;2022-12-07T00:59:49;100084.31;;;-7.04;48.94
74913;BME280;63878;55.624;37.304;2022-12-07T01:09:49;100081.75;;;-7.04;48.72
74913;BME280;63878;55.624;37.304;2022-12-07T01:19:50;100094.09;;;-7.26;49.04
74913;BME280;63878;55.624;37.304;2022-12-07T01:29:50;100088.63;;;-7.46;49.64
74913;BME280;63878;55.624;37.304;2022-12-07T01:39:51;100081.38;;;-7.68;49.01
74913;BME280;63878;55.624;37.304;2022-12-07T01:49:52;100069.84;;;-7.51;49.53
74913;BME280;63878;55.624;37.304;2022-12-07T01:59:53;100044.66;;;-7.38;48.56
74913;BME280;63878;55.624;37.304;2022-12-07T02:09:56;100063.19;;;-7.46;48.86
74913;BME280;63878;55.624;37.304;2022-12-07T02:30:07;100055.16;;;-7.65;49.40
74913;BME280;63878;55.624;37.304;2022-12-07T02:40:10;100046.84;;;-7.99;49.34
74913;BME280;63878;55.624;37.304;2022-12-07T02:50:12;100045.66;;;-7.74;48.90
74913;BME280;63878;55.624;37.304;2022-12-07T03:00:15;100046.13;;;-7.50;49.44
74913;BME280;63878;55.624;37.304;2022-12-07T03:21:01;100035.38;;;-8.19;49.71
74913;BME280;63878;55.624;37.304;2022-12-07T03:31:13;100027.31;;;-8.02;51.09
74913;BME280;63878;55.624;37.304;2022-12-07T03:41:25;100003.63;;;-7.57;50.42
74913;BME280;63878;55.624;37.304;2022-12-07T04:01:55;100011.31;;;-7.96;49.90
74913;BME280;63878;55.624;37.304;2022-12-07T04:11:56;100007.72;;;-8.07;50.68
74913;BME280;63878;55.624;37.304;2022-12-07T04:21:58;100004.44;;;-8.02;50.88
74913;BME280;63878;55.624;37.304;2022-12-07T04:32:00;100000.28;;;-7.98;50.73
74913;BME280;63878;55.624;37.304;2022-12-07T04:42:01;99989.41;;;-7.89;52.34
74913;BME280;63878;55.624;37.304;2022-12-07T04:52:02;99981.47;;;-7.62;51.81
74913;BME280;63878;55.624;37.304;2022-12-07T05:02:03;100002.31;;;-7.82;51.70
74913;BME280;63878;55.624;37.304;2022-12-07T05:12:04;99996.28;;;-7.87;52.96
74913;BME280;63878;55.624;37.304;2022-12-07T05:22:04;100008.63;;;-8.04;53.21
74913;BME280;63878;55.624;37.304;2022-12-07T05:32:05;100006.78;;;-8.11;54.20
74913;BME280;63878;55.624;37.304;2022-12-07T05:42:06;99996.97;;;-7.94;54.92
74913;BME280;63878;55.624;37.304;2022-12-07T05:52:06;99993.09;;;-8.17;56.13
74913;BME280;63878;55.624;37.304;2022-12-07T06:02:09;99978.09;;;-8.05;56.85
74913;BME280;63878;55.624;37.304;2022-12-07T06:12:11;99993.31;;;-8.07;56.98
74913;BME280;63878;55.624;37.304;2022-12-07T06:22:12;99987.59;;;-7.97;56.66
74913;BME280;63878;55.624;37.304;2022-12-07T06:32:13;99991.56;;;-8.09;57.00
74913;BME280;63878;55.624;37.304;2022-12-07T06:42:13;99974.00;;;-7.99;58.08
74913;BME280;63878;55.624;37.304;2022-12-07T06:52:14;99984.06;;;-8.03;59.08
74913;BME280;63878;55.624;37.304;2022-12-07T07:02:14;99989.47;;;-7.88;58.67
74913;BME280;63878;55.624;37.304;2022-12-07T07:12:15;99982.47;;;-8.00;58.89
74913;BME280;63878;55.624;37.304;2022-12-07T07:22:15;99967.09;;;-7.62;57.74
74913;BME280;63878;55.624;37.304;2022-12-07T07:32:16;99979.53;;;-7.76;57.96
74913;BME280;63878;55.624;37.304;2022-12-07T07:42:16;99971.00;;;-7.34;56.50
74913;BME280;63878;55.624;37.304;2022-12-07T07:52:17;99966.31;;;-7.56;58.09
74913;BME280;63878;55.624;37.304;2022-12-07T08:02:19;99953.94;;;-7.85;58.39
74913;BME280;63878;55.624;37.304;2022-12-07T08:12:19;99954.19;;;-7.73;58.29
74913;BME280;63878;55.624;37.304;2022-12-07T08:22:20;99964.19;;;-7.82;58.45
74913;BME280;63878;55.624;37.304;2022-12-07T08:32:20;99950.63;;;-7.35;54.88
74913;BME280;63878;55.624;37.304;2022-12-07T08:42:21;99934.41;;;-6.88;54.57
74913;BME280;63878;55.624;37.304;2022-12-07T08:52:22;99930.50;;;-7.22;53.89
74913;BME280;63878;55.624;37.304;2022-12-07T09:02:22;99933.84;;;-7.23;53.34
74913;BME280;63878;55.624;37.304;2022-12-07T09:12:23;99920.75;;;-6.93;53.09
74913;BME280;63878;55.624;37.304;2022-12-07T09:22:23;99908.22;;;-6.80;52.50
74913;BME280;63878;55.624;37.304;2022-12-07T09:32:24;99894.06;;;-6.59;51.85
74913;BME280;63878;55.624;37.304;2022-12-07T09:42:32;99854.31;;;-7.09;52.12
74913;BME280;63878;55.624;37.304;2022-12-07T09:52:34;99878.00;;;-6.54;50.74
74913;BME280;63878;55.624;37.304;2022-12-07T10:02:39;99861.16;;;-6.43;50.47
74913;BME280;63878;55.624;37.304;2022-12-07T10:13:00;99861.03;;;-6.54;50.16
74913;BME280;63878;55.624;37.304;2022-12-07T10:23:04;99856.19;;;-6.33;49.95
74913;BME280;63878;55.624;37.304;2022-12-07T10:33:36;99857.81;;;-6.39;49.71
74913;BME280;63878;55.624;37.304;2022-12-07T10:43:36;99854.59;;;-6.23;49.53
74913;BME280;63878;55.624;37.304;2022-12-07T11:25:13;99793.50;;;-6.15;50.03
74913;BME280;63878;55.624;37.304;2022-12-07T11:46:06;99788.72;;;-5.76;49.29
74913;BME280;63878;55.624;37.304;2022-12-07T12:06:02;99763.97;;;-5.89;49.46
74913;BME280;63878;55.624;37.304;2022-12-07T12:16:13;99757.94;;;-6.03;49.93
74913;BME280;63878;55.624;37.304;2022-12-07T12:26:25;99758.03;;;-5.92;49.99
74913;BME280;63878;55.624;37.304;2022-12-07T12:47:02;99759.81;;;-5.78;50.78
74913;BME280;63878;55.624;37.304;2022-12-07T12:57:27;99748.13;;;-6.50;52.89
74913;BME280;63878;55.624;37.304;2022-12-07T13:38:27;99727.44;;;-6.82;54.81
74913;BME280;63878;55.624;37.304;2022-12-07T13:48:31;99727.44;;;-6.82;55.26
74913;BME280;63878;55.624;37.304;2022-12-07T13:58:33;99714.16;;;-7.28;56.66
74913;BME280;63878;55.624;37.304;2022-12-07T14:08:33;99688.06;;;-7.11;55.41
74913;BME280;63878;55.624;37.304;2022-12-07T14:18:39;99727.94;;;-7.10;55.86
74913;BME280;63878;55.624;37.304;2022-12-07T14:28:41;99715.72;;;-7.36;55.33
74913;BME280;63878;55.624;37.304;2022-12-07T14:38:42;99709.47;;;-7.61;56.76
74913;BME280;63878;55.624;37.304;2022-12-07T14:48:42;99703.91;;;-7.32;55.65
74913;BME280;63878;55.624;37.304;2022-12-07T14:58:43;99706.34;;;-7.42;55.35
74913;BME280;63878;55.624;37.304;2022-12-07T15:08:44;99697.91;;;-7.36;56.46
74913;BME280;63878;55.624;37.304;2022-12-07T15:18:44;99700.13;;;-7.62;56.94
74913;BME280;63878;55.624;37.304;2022-12-07T15:28:45;99673.97;;;-7.53;56.79
74913;BME280;63878;55.624;37.304;2022-12-07T15:38:45;99664.56;;;-7.60;57.40
74913;BME280;63878;55.624;37.304;2022-12-07T15:48:46;99654.03;;;-7.20;56.52
74913;BME280;63878;55.624;37.304;2022-12-07T15:58:47;99644.47;;;-7.39;58.20
74913;BME280;63878;55.624;37.304;2022-12-07T16:08:47;99657.91;;;-7.49;57.87
74913;BME280;63878;55.624;37.304;2022-12-07T16:18:48;99662.88;;;-7.57;57.45
74913;BME280;63878;55.624;37.304;2022-12-07T16:28:50;99650.91;;;-7.67;58.50
74913;BME280;63878;55.624;37.304;2022-12-07T16:38:51;99644.69;;;-7.87;58.91
74913;BME280;63878;55.624;37.304;2022-12-07T16:48:51;99642.38;;;-7.69;59.63
74913;BME280;63878;55.624;37.304;2022-12-07T16:58:52;99630.69;;;-7.56;59.37
74913;BME280;63878;55.624;37.304;2022-12-07T17:08:53;99628.97;;;-7.59;59.48
74913;BME280;63878;55.624;37.304;2022-12-07T17:18:54;99623.72;;;-7.70;59.31
74913;BME280;63878;55.624;37.304;2022-12-07T17:28:55;99616.34;;;-7.50;59.76
74913;BME280;63878;55.624;37.304;2022-12-07T17:38:55;99610.63;;;-7.33;58.79
74913;BME280;63878;55.624;37.304;2022-12-07T17:48:57;99603.16;;;-7.21;58.07
74913;BME280;63878;55.624;37.304;2022-12-07T17:58:58;99623.13;;;-7.52;59.99
74913;BME280;63878;55.624;37.304;2022-12-07T18:08:59;99609.88;;;-7.93;60.74
74913;BME280;63878;55.624;37.304;2022-12-07T18:19:04;99581.56;;;-7.55;59.23
74913;BME280;63878;55.624;37.304;2022-12-07T18:29:06;99602.16;;;-8.01;60.77
74913;BME280;63878;55.624;37.304;2022-12-07T18:39:08;99581.66;;;-8.13;62.48
74913;BME280;63878;55.624;37.304;2022-12-07T18:49:13;99578.63;;;-7.87;60.77
74913;BME280;63878;55.624;37.304;2022-12-07T18:59:14;99569.31;;;-7.87;61.01
74913;BME280;63878;55.624;37.304;2022-12-07T19:09:14;99581.38;;;-8.31;63.06
74913;BME280;63878;55.624;37.304;2022-12-07T19:19:17;99559.38;;;-8.31;63.87
74913;BME280;63878;55.624;37.304;2022-12-07T19:29:18;99565.94;;;-7.83;60.83
74913;BME280;63878;55.624;37.304;2022-12-07T19:39:19;99552.38;;;-7.85;62.30
74913;BME280;63878;55.624;37.304;2022-12-07T19:49:22;99561.31;;;-8.14;63.23
74913;BME280;63878;55.624;37.304;2022-12-07T19:59:27;99546.97;;;-8.09;61.97
74913;BME280;63878;55.624;37.304;2022-12-07T20:09:28;99549.41;;;-8.17;62.60
74913;BME280;63878;55.624;37.304;2022-12-07T20:19:29;99553.88;;;-8.01;61.74
74913;BME280;63878;55.624;37.304;2022-12-07T20:29:30;99546.84;;;-8.20;62.40
74913;BME280;63878;55.624;37.304;2022-12-07T20:39:30;99538.81;;;-7.85;61.36
74913;BME280;63878;55.624;37.304;2022-12-07T20:49:32;99531.59;;;-8.18;62.00
74913;BME280;63878;55.624;37.304;2022-12-07T20:59:32;99523.13;;;-8.20;63.48
74913;BME280;63878;55.624;37.304;2022-12-07T21:09:35;99515.44;;;-8.24;63.66
74913;BME280;63878;55.624;37.304;2022-12-07T21:19:36;99509.38;;;-8.35;63.04
74913;BME280;63878;55.624;37.304;2022-12-07T21:29:36;99496.91;;;-8.16;62.83
74913;BME280;63878;55.624;37.304;2022-12-07T21:39:37;99501.81;;;-8.32;63.21
74913;BME280;63878;55.624;37.304;2022-12-07T21:49:38;99488.25;;;-8.34;63.93
74913;BME280;63878;55.624;37.304;2022-12-07T21:59:38;99479.13;;;-8.18;63.32
74913;BME280;63878;55.624;37.304;2022-12-07T22:09:39;99485.09;;;-8.14;63.60
74913;BME280;63878;55.624;37.304;2022-12-07T22:19:39;99476.03;;;-7.94;64.27
74913;BME280;63878;55.624;37.304;2022-12-07T22:29:39;99478.41;;;-8.08;63.83
74913;BME280;63878;55.624;37.304;2022-12-07T22:39:40;99447.22;;;-7.94;63.86
74913;BME280;63878;55.624;37.304;2022-12-07T22:49:40;99461.66;;;-7.90;65.86
74913;BME280;63878;55.624;37.304;2022-12-07T22:59:41;99452.19;;;-8.04;65.87
74913;BME280;63878;55.624;37.304;2022-12-07T23:09:42;99449.72;;;-7.98;67.43
74913;BME280;63878;55.624;37.304;2022-12-07T23:19:42;99421.69;;;-8.04;67.24
74913;BME280;63878;55.624;37.304;2022-12-07T23:29:43;99438.28;;;-7.57;66.57
74913;BME280;63878;55.624;37.304;2022-12-07T23:39:43;99434.69;;;-7.79;67.78
74913;BME280;63878;55.624;37.304;2022-12-07T23:49:43;99408.59;;;-7.61;67.45
74913;BME280;63878;55.624;37.304;2022-12-07T23:59:44;99408.72;;;-7.46;66.89
